TimeEDT,TemperatureF,Dew PointF,Humidity,Sea Level PressureIn,VisibilityMPH,Wind Direction,Wind SpeedMPH,Gust SpeedMPH,PrecipitationIn,Events,Conditions,WindDirDegrees,DateUTC
12:15 AM,28.4,3.2,34,29.92,10.0,West,26.5,36.8,N/A,,Clear,280,2013-03-20 04:15:00
12:35 AM,28.4,3.2,34,29.91,10.0,West,20.7,33.4,N/A,,Clear,280,2013-03-20 04:35:00
12:55 AM,28.4,3.2,34,29.91,10.0,West,21.9,33.4,N/A,,Clear,280,2013-03-20 04:55:00
1:15 AM,26.6,5.0,40,29.92,10.0,West,21.9,29.9,N/A,,Clear,280,2013-03-20 05:15:00
1:35 AM,26.6,3.2,37,29.93,10.0,WNW,17.3,26.5,N/A,,Clear,290,2013-03-20 05:35:00
1:55 AM,26.6,5.0,40,29.93,10.0,WNW,16.1,27.6,N/A,,Clear,290,2013-03-20 05:55:00
2:15 AM,26.6,5.0,40,29.93,10.0,West,18.4,31.1,N/A,,Clear,280,2013-03-20 06:15:00
2:35 AM,26.6,5.0,40,29.93,10.0,WNW,15.0,31.1,N/A,,Clear,290,2013-03-20 06:35:00
2:55 AM,26.6,6.8,43,29.93,10.0,West,15.0,24.2,N/A,,Clear,270,2013-03-20 06:55:00
3:15 AM,24.8,6.8,46,29.92,10.0,West,18.4,27.6,N/A,,Clear,280,2013-03-20 07:15:00
3:35 AM,24.8,6.8,46,29.92,10.0,WNW,13.8,25.3,N/A,,Clear,290,2013-03-20 07:35:00
3:55 AM,24.8,6.8,46,29.91,10.0,WNW,16.1,26.5,N/A,,Clear,290,2013-03-20 07:55:00
4:15 AM,24.8,6.8,46,29.90,10.0,WNW,17.3,28.8,N/A,,Clear,300,2013-03-20 08:15:00
4:35 AM,24.8,6.8,46,29.90,10.0,WNW,13.8,24.2,N/A,,Clear,290,2013-03-20 08:35:00
4:55 AM,24.8,6.8,46,29.90,10.0,West,12.7,23.0,N/A,,Clear,280,2013-03-20 08:55:00
5:15 AM,23.0,6.8,50,29.91,10.0,West,15.0,24.2,N/A,,Clear,280,2013-03-20 09:15:00
5:35 AM,23.0,6.8,50,29.91,10.0,WNW,13.8,23.0,N/A,,Clear,290,2013-03-20 09:35:00
5:55 AM,23.0,6.8,50,29.90,10.0,West,17.3,21.9,N/A,,Clear,280,2013-03-20 09:55:00
6:15 AM,23.0,6.8,50,29.90,10.0,West,13.8,21.9,N/A,,Clear,280,2013-03-20 10:15:00
6:35 AM,23.0,6.8,50,29.91,10.0,West,16.1,23.0,N/A,,Clear,280,2013-03-20 10:35:00
6:55 AM,23.0,8.6,54,29.91,10.0,West,16.1,23.0,N/A,,Clear,270,2013-03-20 10:55:00
7:15 AM,21.2,8.6,58,29.90,10.0,West,16.1,23.0,N/A,,Clear,280,2013-03-20 11:15:00
7:35 AM,23.0,8.6,54,29.91,10.0,West,17.3,24.2,N/A,,Clear,280,2013-03-20 11:35:00
7:55 AM,23.0,8.6,54,29.91,10.0,West,18.4,-,N/A,,Clear,280,2013-03-20 11:55:00
8:15 AM,23.0,8.6,54,29.91,10.0,West,16.1,21.9,N/A,,Clear,280,2013-03-20 12:15:00
8:35 AM,23.0,8.6,54,29.92,10.0,West,15.0,23.0,N/A,,Clear,280,2013-03-20 12:35:00
8:55 AM,24.8,10.4,54,29.93,10.0,West,13.8,25.3,N/A,,Clear,280,2013-03-20 12:55:00
9:15 AM,24.8,10.4,54,29.93,10.0,West,17.3,25.3,N/A,,Clear,280,2013-03-20 13:15:00
9:35 AM,24.8,10.4,54,29.93,10.0,West,17.3,24.2,N/A,,Clear,280,2013-03-20 13:35:00
9:55 AM,26.6,8.6,47,29.94,10.0,WNW,12.7,23.0,N/A,,Clear,290,2013-03-20 13:55:00
10:15 AM,26.6,10.4,51,29.94,10.0,West,13.8,-,N/A,,Clear,260,2013-03-20 14:15:00
10:55 AM,28.4,10.4,47,29.93,10.0,West,10.4,25.3,N/A,,Clear,280,2013-03-20 14:55:00
11:35 AM,30.2,10.4,44,29.93,10.0,West,9.2,-,N/A,,Clear,260,2013-03-20 15:35:00
12:15 PM,33.8,10.4,38,29.91,10.0,WNW,19.6,25.3,N/A,,Clear,290,2013-03-20 16:15:00
12:35 PM,33.8,10.4,38,29.90,10.0,West,21.9,33.4,N/A,,Clear,260,2013-03-20 16:35:00
1:15 PM,35.6,10.4,35,29.88,10.0,West,13.8,28.8,N/A,,Scattered Clouds,270,2013-03-20 17:15:00
1:35 PM,35.6,12.2,38,29.87,10.0,WSW,17.3,23.0,N/A,,Scattered Clouds,250,2013-03-20 17:35:00
1:55 PM,35.6,10.4,35,29.86,10.0,West,23.0,28.8,N/A,,Scattered Clouds,270,2013-03-20 17:55:00
2:15 PM,33.8,8.6,35,29.84,10.0,WNW,15.0,26.5,N/A,,Scattered Clouds,290,2013-03-20 18:15:00
2:35 PM,37.4,10.4,33,29.84,10.0,West,18.4,26.5,N/A,,Scattered Clouds,270,2013-03-20 18:35:00
2:55 PM,35.6,8.6,33,29.82,10.0,WSW,21.9,27.6,N/A,,Scattered Clouds,250,2013-03-20 18:55:00
3:15 PM,35.6,8.6,33,29.80,10.0,West,17.3,25.3,N/A,,Scattered Clouds,260,2013-03-20 19:15:00
3:35 PM,39.2,10.4,31,29.79,10.0,West,28.8,39.1,N/A,,Scattered Clouds,260,2013-03-20 19:35:00
3:55 PM,37.4,8.6,30,29.79,10.0,West,20.7,35.7,N/A,,Scattered Clouds,260,2013-03-20 19:55:00
4:15 PM,35.6,6.8,30,29.78,10.0,West,23.0,33.4,N/A,,Clear,280,2013-03-20 20:15:00
4:35 PM,35.6,8.6,33,29.77,10.0,West,24.2,28.8,N/A,,Clear,270,2013-03-20 20:35:00
4:55 PM,35.6,8.6,33,29.77,10.0,West,19.6,26.5,N/A,,Scattered Clouds,270,2013-03-20 20:55:00
5:15 PM,35.6,8.6,33,29.76,10.0,West,16.1,26.5,N/A,,Scattered Clouds,280,2013-03-20 21:15:00
5:55 PM,35.6,8.6,33,29.75,10.0,West,17.3,24.2,N/A,,Scattered Clouds,260,2013-03-20 21:55:00
6:15 PM,35.6,8.6,33,29.74,10.0,WSW,15.0,23.0,N/A,,Scattered Clouds,250,2013-03-20 22:15:00
6:35 PM,35.6,8.6,33,29.75,10.0,West,15.0,25.3,N/A,,Scattered Clouds,270,2013-03-20 22:35:00
6:55 PM,35.6,8.6,33,29.75,10.0,West,12.7,18.4,N/A,,Mostly Cloudy,260,2013-03-20 22:55:00
7:35 PM,33.8,8.6,35,29.74,10.0,West,16.1,21.9,N/A,,Scattered Clouds,260,2013-03-20 23:35:00
7:55 PM,33.8,8.6,35,29.74,10.0,West,15.0,20.7,N/A,,Scattered Clouds,270,2013-03-20 23:55:00
7:57 PM,33.8,8.6,35,29.74,10.0,West,11.5,20.7,N/A,,Mostly Cloudy,260,2013-03-20 23:57:00
8:15 PM,33.8,10.4,38,29.74,10.0,West,13.8,21.9,N/A,,Mostly Cloudy,270,2013-03-21 00:15:00
8:35 PM,33.8,10.4,38,29.74,10.0,West,16.1,27.6,N/A,,Mostly Cloudy,270,2013-03-21 00:35:00
8:55 PM,32.0,10.4,41,29.74,10.0,West,11.5,21.9,N/A,,Overcast,260,2013-03-21 00:55:00
9:15 PM,32.0,12.2,44,29.74,10.0,WSW,13.8,19.6,N/A,,Overcast,250,2013-03-21 01:15:00
9:35 PM,32.0,12.2,44,29.74,10.0,West,11.5,19.6,N/A,,Overcast,270,2013-03-21 01:35:00
9:55 PM,30.2,17.6,60,29.74,10.0,WNW,11.5,17.3,N/A,,Mostly Cloudy,300,2013-03-21 01:55:00
10:15 PM,28.4,21.2,74,29.74,10.0,NW,13.8,18.4,N/A,,Overcast,310,2013-03-21 02:15:00
10:35 PM,26.6,23.0,86,29.74,10.0,WNW,13.8,19.6,N/A,,Overcast,300,2013-03-21 02:35:00
10:55 PM,26.6,23.0,86,29.75,10.0,West,16.1,20.7,N/A,,Overcast,280,2013-03-21 02:55:00
11:15 PM,24.8,24.8,100,29.74,1.5,West,17.3,24.2,N/A,Snow,Light Snow,280,2013-03-21 03:15:00
11:35 PM,24.8,24.8,100,29.74,0.8,West,16.1,-,N/A,,Overcast,280,2013-03-21 03:35:00
11:55 PM,24.8,24.8,100,29.73,5.0,West,18.4,-,N/A,,Overcast,280,2013-03-21 03:55:00